createdAt,value
2022-10-31T00:01:39.819Z,26.45
2022-10-31T00:04:07.631Z,24.17
2022-10-31T00:06:34.634Z,24.83
2022-10-31T00:09:04.717Z,25.48
2022-10-31T00:11:32.020Z,26.17
2022-10-31T00:14:00.228Z,26.05
2022-10-31T00:16:29.650Z,28.02
2022-10-31T00:19:00.706Z,23.92
2022-10-31T00:21:28.241Z,26.95
2022-10-31T00:23:55.141Z,26.67
2022-10-31T00:26:22.329Z,27.77
2022-10-31T00:28:49.657Z,27.27
2022-10-31T00:31:16.744Z,27.73
2022-10-31T00:33:44.628Z,27.27
2022-10-31T00:36:15.580Z,22.52
2022-10-31T00:38:47.448Z,23.38
2022-10-31T00:41:18.952Z,24.58
2022-10-31T00:43:46.092Z,25.48
2022-10-31T00:46:14.478Z,25.58
2022-10-31T00:48:42.834Z,25.90
2022-10-31T00:51:10.284Z,24.00
2022-10-31T00:53:37.536Z,23.60
2022-10-31T00:56:05.415Z,23.00
2022-10-31T00:58:32.270Z,22.58
2022-10-31T01:00:59.223Z,21.40
2022-10-31T01:03:30.698Z,21.58
2022-10-31T01:06:07.896Z,20.58
2022-10-31T01:08:37.104Z,20.48
2022-10-31T01:11:12.068Z,21.90
2022-10-31T01:13:41.527Z,20.77
2022-10-31T01:16:21.134Z,22.15
2022-10-31T01:18:51.119Z,21.20
2022-10-31T01:21:27.668Z,22.45
2022-10-31T01:23:57.895Z,21.77
2022-10-31T01:26:29.009Z,20.90
2022-10-31T01:29:08.781Z,22.77
2022-10-31T01:31:39.725Z,22.10
2022-10-31T01:34:07.574Z,21.60
2022-10-31T01:36:38.568Z,20.30
2022-10-31T01:39:15.805Z,21.52
2022-10-31T01:41:51.346Z,20.77
2022-10-31T01:44:18.168Z,20.27
2022-10-31T01:47:00.463Z,19.38
2022-10-31T01:50:03.645Z,19.42
2022-10-31T01:52:43.836Z,18.50
2022-10-31T01:55:30.445Z,17.88
2022-10-31T01:58:07.922Z,17.00
2022-10-31T02:00:34.898Z,17.83
2022-10-31T02:03:02.919Z,18.63
2022-10-31T02:05:31.457Z,17.73
2022-10-31T02:08:05.454Z,17.27
2022-10-31T02:10:36.487Z,18.10
2022-10-31T02:13:08.074Z,17.35
2022-10-31T02:15:43.542Z,16.30
2022-10-31T02:18:10.915Z,16.38
2022-10-31T02:21:06.483Z,17.83
2022-10-31T02:24:01.348Z,16.88
2022-10-31T02:26:52.661Z,16.85
2022-10-31T02:30:01.251Z,17.13
2022-10-31T02:32:34.197Z,17.15
2022-10-31T02:35:41.836Z,17.55
2022-10-31T02:38:38.165Z,16.17
2022-10-31T02:41:26.647Z,16.65
2022-10-31T02:44:09.479Z,15.68
2022-10-31T02:46:46.524Z,17.92
2022-10-31T02:49:41.139Z,16.35
2022-10-31T02:52:20.928Z,17.73
2022-10-31T02:54:56.120Z,18.35
2022-10-31T02:57:55.964Z,16.75
2022-10-31T03:01:25.309Z,17.23
2022-10-31T03:04:36.492Z,16.27
2022-10-31T03:07:36.582Z,17.08
2022-10-31T03:10:03.392Z,15.85
2022-10-31T03:12:49.001Z,16.90
2022-10-31T03:15:31.532Z,17.52
2022-10-31T03:18:29.061Z,15.68
2022-10-31T03:21:14.786Z,14.93
2022-10-31T03:23:47.369Z,16.15
2022-10-31T03:26:22.640Z,15.57
2022-10-31T03:29:31.734Z,16.15
2022-10-31T03:32:06.517Z,14.05
2022-10-31T03:34:42.434Z,13.98
2022-10-31T03:39:44.635Z,13.27
2022-10-31T03:42:26.194Z,12.73
2022-10-31T03:45:01.821Z,13.73
2022-10-31T03:47:29.554Z,13.82
2022-10-31T03:49:57.549Z,13.23
2022-10-31T03:52:43.875Z,12.85
2022-10-31T03:55:31.195Z,12.48
2022-10-31T03:58:11.940Z,14.48
2022-10-31T04:00:45.036Z,12.68
2022-10-31T04:03:20.108Z,14.45
2022-10-31T04:05:55.139Z,13.75
2022-10-31T04:08:28.950Z,13.27
2022-10-31T04:11:00.174Z,13.67
2022-10-31T04:13:32.633Z,15.13
2022-10-31T04:16:05.361Z,14.15
2022-10-31T04:18:33.506Z,14.02
2022-10-31T04:21:05.694Z,13.65
2022-10-31T04:23:34.382Z,14.52
2022-10-31T04:26:05.640Z,13.05
2022-10-31T04:28:34.678Z,14.07
2022-10-31T04:31:02.307Z,13.43
2022-10-31T04:33:30.283Z,14.63
2022-10-31T04:35:57.157Z,15.70
2022-10-31T04:38:24.735Z,14.15
2022-10-31T04:40:51.588Z,15.43
2022-10-31T04:43:44.078Z,14.48
2022-10-31T04:46:10.964Z,14.63
2022-10-31T04:48:37.835Z,14.25
2022-10-31T04:51:06.724Z,13.98
2022-10-31T04:53:34.000Z,15.27
2022-10-31T04:56:30.319Z,14.05
2022-10-31T04:59:03.178Z,14.55
2022-10-31T05:01:48.663Z,14.60
2022-10-31T05:04:26.118Z,13.25
2022-10-31T05:06:53.663Z,14.10
2022-10-31T05:09:20.595Z,14.43
2022-10-31T05:11:47.495Z,14.30
2022-10-31T05:17:22.474Z,13.38
2022-10-31T05:20:30.406Z,14.07
2022-10-31T05:23:29.424Z,14.82
2022-10-31T05:25:56.293Z,14.27
2022-10-31T05:28:23.225Z,12.98
2022-10-31T05:30:51.121Z,15.27
2022-10-31T05:33:18.265Z,14.30
2022-10-31T05:36:04.332Z,13.32
2022-10-31T05:38:37.176Z,12.35
2022-10-31T05:41:14.630Z,13.88
2022-10-31T05:43:46.937Z,12.35
2022-10-31T05:46:14.853Z,12.40
2022-10-31T05:49:01.782Z,12.95
2022-10-31T05:52:01.643Z,15.20
2022-10-31T05:54:38.265Z,13.07
2022-10-31T05:57:05.182Z,12.18
2022-10-31T05:59:32.435Z,13.77
2022-10-31T06:02:01.494Z,13.10
2022-10-31T06:04:54.597Z,13.73
2022-10-31T06:07:22.749Z,13.35
2022-10-31T06:09:50.402Z,13.30
2022-10-31T06:12:17.331Z,13.38
2022-10-31T06:15:13.376Z,15.60
2022-10-31T06:17:40.231Z,13.13
2022-10-31T06:20:20.927Z,19.50
2022-10-31T06:22:56.786Z,23.35
2022-10-31T06:25:24.603Z,20.45
2022-10-31T06:27:51.670Z,14.63
2022-10-31T06:30:20.371Z,20.73
2022-10-31T06:32:47.601Z,17.00
2022-10-31T06:35:14.610Z,17.45
2022-10-31T06:37:44.426Z,16.30
2022-10-31T06:40:27.290Z,16.20
2022-10-31T06:43:16.942Z,15.95
2022-10-31T06:45:44.549Z,14.75
2022-10-31T06:48:18.426Z,15.35
2022-10-31T06:51:04.477Z,14.90
2022-10-31T06:53:32.656Z,16.02
2022-10-31T06:55:59.561Z,16.60
2022-10-31T06:58:29.201Z,17.65
2022-10-31T07:01:01.814Z,16.85
2022-10-31T07:03:28.958Z,16.85
2022-10-31T07:05:57.717Z,16.50
2022-10-31T07:08:25.672Z,17.80
2022-10-31T07:10:56.870Z,18.95
2022-10-31T07:13:28.464Z,16.77
2022-10-31T07:16:07.986Z,16.60
2022-10-31T07:18:36.551Z,15.85
2022-10-31T07:21:04.231Z,17.67
2022-10-31T07:23:32.040Z,17.45
2022-10-31T07:26:24.832Z,15.60
2022-10-31T07:28:52.442Z,17.90
2022-10-31T07:31:22.715Z,17.77
2022-10-31T07:33:51.638Z,16.02
2022-10-31T07:36:41.168Z,15.10
2022-10-31T07:39:08.024Z,16.92
2022-10-31T07:41:36.348Z,17.52
2022-10-31T07:44:03.301Z,15.43
2022-10-31T07:46:30.089Z,17.25
2022-10-31T07:52:01.076Z,16.50
2022-10-31T07:54:27.911Z,16.70
2022-10-31T07:56:54.819Z,15.77
2022-10-31T07:59:21.696Z,15.60
2022-10-31T08:01:48.836Z,15.55
2022-10-31T08:04:41.751Z,15.55
2022-10-31T08:07:38.770Z,15.25
2022-10-31T08:10:08.487Z,15.02
2022-10-31T08:12:35.837Z,15.55
2022-10-31T08:15:05.185Z,14.85
2022-10-31T08:17:36.348Z,14.63
2022-10-31T08:20:05.265Z,14.60
2022-10-31T08:22:39.714Z,13.88
2022-10-31T08:25:10.413Z,14.73
2022-10-31T08:27:37.637Z,13.68
2022-10-31T08:30:05.173Z,14.80
2022-10-31T08:32:33.461Z,15.43
2022-10-31T08:35:19.548Z,14.90
2022-10-31T08:40:34.258Z,12.80
2022-10-31T08:43:11.997Z,12.40
2022-10-31T08:45:39.096Z,11.90
2022-10-31T08:48:13.917Z,13.63
2022-10-31T08:50:42.112Z,12.75
2022-10-31T08:53:19.952Z,13.23
2022-10-31T08:55:57.344Z,11.43
2022-10-31T08:58:26.651Z,11.82
2022-10-31T09:01:02.104Z,11.45
2022-10-31T09:03:34.811Z,11.43
2022-10-31T09:06:06.628Z,11.65
2022-10-31T09:08:34.437Z,11.07
2022-10-31T09:11:03.539Z,9.75
2022-10-31T09:13:48.831Z,10.10
2022-10-31T09:16:44.896Z,10.23
2022-10-31T09:19:18.526Z,10.32
2022-10-31T09:21:46.949Z,10.95
2022-10-31T09:24:13.835Z,10.75
2022-10-31T09:26:42.527Z,11.30
2022-10-31T09:29:27.923Z,9.60
2022-10-31T09:31:58.939Z,11.43
2022-10-31T09:34:30.516Z,9.35
2022-10-31T09:37:09.497Z,8.80
2022-10-31T09:39:36.656Z,9.88
2022-10-31T09:42:47.547Z,10.55
2022-10-31T09:46:39.710Z,9.63
2022-10-31T09:49:34.606Z,8.90
2022-10-31T09:52:24.387Z,9.73
2022-10-31T09:54:59.320Z,8.68
2022-10-31T10:00:05.762Z,8.07
2022-10-31T10:03:05.727Z,8.77
2022-10-31T10:06:00.844Z,7.38
2022-10-31T10:08:44.012Z,7.60
2022-10-31T10:11:59.223Z,7.55
2022-10-31T10:15:25.338Z,6.68
2022-10-31T10:18:33.700Z,6.53
2022-10-31T10:21:29.940Z,7.03
2022-10-31T10:24:31.039Z,6.28
2022-10-31T10:27:53.341Z,6.88
2022-10-31T10:30:27.980Z,6.95
2022-10-31T10:33:01.430Z,6.90
2022-10-31T10:35:33.428Z,6.43
2022-10-31T10:39:03.272Z,6.00
2022-10-31T10:41:34.793Z,6.78
2022-10-31T10:44:02.292Z,5.38
2022-10-31T10:47:18.812Z,5.53
2022-10-31T10:52:53.574Z,6.60
2022-10-31T10:55:49.482Z,5.43
2022-10-31T10:58:17.270Z,6.18
2022-10-31T11:00:49.449Z,5.88
2022-10-31T11:03:19.767Z,5.60
2022-10-31T11:06:00.754Z,5.72
2022-10-31T11:08:36.580Z,7.10
2022-10-31T11:11:20.335Z,6.43
2022-10-31T11:13:51.327Z,6.93
2022-10-31T11:16:35.552Z,8.25
2022-10-31T11:19:23.492Z,10.52
2022-10-31T11:24:29.138Z,8.98
2022-10-31T11:27:21.256Z,8.45
2022-10-31T11:29:50.146Z,11.05
2022-10-31T11:32:28.424Z,10.43
2022-10-31T11:35:02.783Z,9.05
2022-10-31T11:37:53.589Z,17.30
2022-10-31T11:40:28.344Z,8.20
2022-10-31T11:42:59.891Z,7.30
2022-10-31T11:45:34.946Z,7.88
2022-10-31T11:48:14.963Z,8.15
2022-10-31T11:50:50.527Z,8.15
2022-10-31T11:53:29.363Z,8.60
2022-10-31T11:56:19.359Z,8.60
2022-10-31T11:59:20.632Z,9.13
2022-10-31T12:01:59.070Z,9.30
2022-10-31T12:04:50.088Z,7.97
2022-10-31T12:07:17.111Z,9.57
2022-10-31T12:09:44.901Z,8.43
2022-10-31T12:12:46.420Z,7.85
2022-10-31T12:15:35.604Z,8.52
2022-10-31T12:18:49.287Z,8.00
2022-10-31T12:21:56.283Z,7.93
2022-10-31T12:25:05.793Z,7.57
2022-10-31T12:28:12.781Z,7.55
2022-10-31T12:30:57.919Z,7.53
2022-10-31T12:36:51.457Z,7.13
2022-10-31T12:39:39.789Z,7.85
2022-10-31T12:42:45.388Z,6.50
2022-10-31T12:45:37.624Z,6.45
2022-10-31T12:48:34.559Z,6.10
2022-10-31T12:51:46.767Z,6.63
2022-10-31T12:54:32.372Z,6.43
2022-10-31T12:57:23.598Z,6.28
2022-10-31T13:00:01.582Z,6.40
2022-10-31T13:02:43.370Z,6.93
2022-10-31T13:05:37.635Z,6.60
2022-10-31T13:08:21.138Z,6.10
2022-10-31T13:10:57.765Z,6.70
2022-10-31T13:13:50.351Z,5.95
2022-10-31T13:16:23.584Z,5.07
2022-10-31T13:19:12.848Z,5.60
2022-10-31T13:21:52.495Z,5.13
2022-10-31T13:24:29.138Z,4.95
2022-10-31T13:27:00.092Z,5.38
2022-10-31T13:30:05.261Z,5.82
2022-10-31T13:33:02.010Z,5.77
2022-10-31T13:36:08.144Z,4.95
2022-10-31T13:38:42.351Z,5.00
2022-10-31T13:41:49.403Z,4.88
2022-10-31T13:44:25.311Z,4.90
2022-10-31T13:46:55.524Z,4.55
2022-10-31T13:49:31.620Z,4.75
2022-10-31T13:52:18.081Z,5.15
2022-10-31T13:54:48.982Z,5.30
2022-10-31T13:57:43.169Z,5.03
2022-10-31T14:00:22.232Z,5.90
2022-10-31T14:02:55.308Z,4.50
2022-10-31T14:05:33.011Z,5.15
2022-10-31T14:08:04.507Z,4.57
2022-10-31T14:10:46.561Z,5.00
2022-10-31T14:13:38.136Z,4.80
2022-10-31T14:16:44.350Z,5.75
2022-10-31T14:19:20.842Z,4.97
2022-10-31T14:21:50.017Z,5.13
2022-10-31T14:24:34.894Z,5.22
2022-10-31T14:27:20.575Z,4.70
2022-10-31T14:29:50.488Z,4.60
2022-10-31T14:32:24.466Z,4.22
2022-10-31T14:34:51.447Z,5.28
2022-10-31T14:37:38.523Z,4.60
2022-10-31T14:40:32.722Z,5.43
2022-10-31T14:43:21.357Z,7.35
2022-10-31T14:46:06.974Z,5.15
2022-10-31T14:49:13.176Z,4.97
2022-10-31T14:51:45.220Z,5.45
2022-10-31T14:54:35.061Z,5.32
2022-10-31T14:57:23.263Z,4.90
2022-10-31T14:59:59.317Z,4.70
2022-10-31T15:02:44.073Z,4.22
2022-10-31T15:05:13.944Z,4.57
2022-10-31T15:07:59.584Z,5.25
2022-10-31T15:10:33.234Z,5.30
2022-10-31T15:13:20.747Z,5.03
2022-10-31T15:15:52.308Z,4.70
2022-10-31T15:18:28.844Z,5.63
2022-10-31T15:20:57.797Z,4.85
2022-10-31T15:23:30.511Z,5.00
2022-10-31T15:26:06.163Z,5.20
2022-10-31T15:28:33.302Z,5.80
2022-10-31T15:31:03.104Z,5.18
2022-10-31T15:33:45.294Z,4.95
2022-10-31T15:36:29.168Z,4.32
2022-10-31T15:38:58.856Z,5.88
2022-10-31T15:41:57.749Z,5.00
2022-10-31T15:44:36.755Z,5.18
2022-10-31T15:47:23.119Z,5.65
2022-10-31T15:49:55.104Z,5.30
2022-10-31T15:52:43.728Z,4.72
2022-10-31T15:55:22.872Z,5.05
2022-10-31T15:57:59.802Z,5.00
2022-10-31T16:00:35.741Z,5.35
2022-10-31T16:03:14.710Z,5.10
2022-10-31T16:05:49.026Z,4.35
2022-10-31T16:08:30.326Z,5.03
2022-10-31T16:11:13.567Z,5.43
2022-10-31T16:14:05.694Z,5.10
2022-10-31T16:16:36.157Z,5.03
2022-10-31T16:19:06.747Z,4.85
2022-10-31T16:21:38.036Z,5.57
2022-10-31T16:24:19.039Z,5.35
2022-10-31T16:26:52.380Z,5.78
2022-10-31T16:29:49.042Z,5.75
2022-10-31T16:32:56.834Z,5.68
2022-10-31T16:35:35.769Z,5.50
2022-10-31T16:38:03.589Z,4.45
2022-10-31T16:40:31.567Z,5.75
2022-10-31T16:43:01.381Z,5.13
2022-10-31T16:45:33.793Z,5.20
2022-10-31T16:48:13.176Z,5.03
2022-10-31T16:50:40.147Z,5.30
2022-10-31T16:53:15.162Z,6.10
2022-10-31T16:56:08.367Z,6.53
2022-10-31T16:58:38.776Z,5.68
2022-10-31T17:01:07.766Z,5.38
2022-10-31T17:03:55.438Z,5.78
2022-10-31T17:06:23.030Z,6.00
2022-10-31T17:08:50.020Z,5.68
2022-10-31T17:11:32.960Z,5.82
2022-10-31T17:13:59.962Z,5.22
2022-10-31T17:16:26.968Z,5.38
2022-10-31T17:18:54.035Z,5.45
2022-10-31T17:21:27.937Z,5.82
2022-10-31T17:23:55.244Z,6.22
2022-10-31T17:26:22.568Z,6.25
2022-10-31T17:28:52.715Z,6.18
2022-10-31T17:31:28.800Z,6.20
2022-10-31T17:34:02.106Z,6.68
2022-10-31T17:36:32.179Z,6.65
2022-10-31T17:38:59.947Z,6.35
2022-10-31T17:41:26.877Z,5.82
2022-10-31T17:43:58.818Z,5.95
2022-10-31T17:46:26.351Z,6.55
2022-10-31T17:48:53.192Z,6.63
2022-10-31T17:51:20.436Z,7.32
2022-10-31T17:53:47.364Z,6.80
2022-10-31T17:56:14.437Z,7.47
2022-10-31T17:58:41.400Z,7.43
2022-10-31T18:01:12.649Z,6.95
2022-10-31T18:03:40.663Z,7.43
2022-10-31T18:06:09.661Z,8.02
2022-10-31T18:08:40.733Z,7.65
2022-10-31T18:11:14.755Z,8.07
2022-10-31T18:13:42.175Z,7.30
2022-10-31T18:16:19.135Z,7.20
2022-10-31T18:18:56.182Z,7.82
2022-10-31T18:21:23.268Z,7.45
2022-10-31T18:23:58.745Z,7.35
2022-10-31T18:26:27.917Z,7.25
2022-10-31T18:28:55.441Z,9.77
2022-10-31T18:31:24.506Z,10.27
2022-10-31T18:33:55.963Z,9.25
2022-10-31T18:36:24.483Z,9.15
2022-10-31T18:38:52.000Z,9.07
2022-10-31T18:41:19.319Z,8.27
2022-10-31T18:43:46.531Z,10.98
2022-10-31T18:46:16.046Z,9.45
2022-10-31T18:48:45.151Z,11.27
2022-10-31T18:51:14.700Z,9.45
2022-10-31T18:53:41.847Z,8.82
2022-10-31T18:56:11.132Z,8.90
2022-10-31T18:58:38.020Z,10.50
2022-10-31T19:01:11.072Z,11.38
2022-10-31T19:03:40.045Z,11.65
2022-10-31T19:06:09.447Z,13.25
2022-10-31T19:08:40.176Z,13.27
2022-10-31T19:11:12.215Z,13.27
2022-10-31T19:13:41.797Z,13.40
2022-10-31T19:16:16.672Z,14.32
2022-10-31T19:18:44.861Z,14.00
2022-10-31T19:21:18.372Z,13.60
2022-10-31T19:23:46.340Z,14.07
2022-10-31T19:26:14.755Z,15.48
2022-10-31T19:28:42.864Z,14.43
2022-10-31T19:31:11.711Z,14.18
2022-10-31T19:33:39.331Z,14.60
2022-10-31T19:36:13.985Z,15.02
2022-10-31T19:38:44.426Z,15.48
2022-10-31T19:41:18.484Z,15.00
2022-10-31T19:43:46.417Z,14.13
2022-10-31T19:46:22.910Z,15.43
2022-10-31T19:49:01.240Z,14.63
2022-10-31T19:51:28.644Z,14.68
2022-10-31T19:53:56.224Z,14.50
2022-10-31T19:56:25.460Z,15.38
2022-10-31T19:58:52.812Z,15.73
2022-10-31T20:01:24.317Z,14.75
2022-10-31T20:03:52.426Z,16.92
2022-10-31T20:06:32.475Z,15.88
2022-10-31T20:09:08.016Z,16.77
2022-10-31T20:11:38.813Z,16.13
2022-10-31T20:14:08.083Z,15.10
2022-10-31T20:16:35.002Z,15.25
2022-10-31T20:19:02.451Z,14.35
2022-10-31T20:21:32.101Z,15.02
2022-10-31T20:24:03.569Z,15.82
2022-10-31T20:26:33.336Z,15.02
2022-10-31T20:29:02.117Z,14.48
2022-10-31T20:31:34.611Z,15.20
2022-10-31T20:34:01.902Z,14.88
2022-10-31T20:36:29.571Z,14.93
2022-10-31T20:38:56.944Z,16.98
2022-10-31T20:41:24.358Z,15.15
2022-10-31T20:43:51.548Z,15.43
2022-10-31T20:46:23.750Z,14.63
2022-10-31T20:48:51.824Z,17.25
2022-10-31T20:51:22.334Z,16.02
2022-10-31T20:53:51.042Z,16.15
2022-10-31T20:56:24.325Z,17.65
2022-10-31T20:58:52.003Z,16.63
2022-10-31T21:01:27.249Z,14.05
2022-10-31T21:03:54.775Z,15.00
2022-10-31T21:06:23.263Z,14.68
2022-10-31T21:08:51.583Z,14.27
2022-10-31T21:11:22.487Z,14.52
2022-10-31T21:13:50.850Z,14.32
2022-10-31T21:16:34.086Z,15.02
2022-10-31T21:19:01.773Z,15.18
2022-10-31T21:21:33.770Z,15.75
2022-10-31T21:24:08.141Z,13.82
2022-10-31T21:26:40.451Z,15.95
2022-10-31T21:29:11.916Z,15.73
2022-10-31T21:31:40.660Z,15.40
2022-10-31T21:34:08.107Z,16.25
2022-10-31T21:36:36.051Z,15.10
2022-10-31T21:39:05.532Z,18.33
2022-10-31T21:41:32.451Z,15.68
2022-10-31T21:43:59.845Z,16.95
2022-10-31T21:46:32.357Z,17.13
2022-10-31T21:49:01.388Z,16.35
2022-10-31T21:51:34.828Z,16.50
2022-10-31T21:54:20.610Z,17.45
2022-10-31T21:56:47.840Z,16.50
2022-10-31T21:59:14.775Z,16.90
2022-10-31T22:01:41.712Z,16.70
2022-10-31T22:04:09.422Z,17.15
2022-10-31T22:06:37.255Z,15.45
2022-10-31T22:09:08.215Z,18.02
2022-10-31T22:11:35.432Z,15.43
2022-10-31T22:14:03.340Z,17.65
2022-10-31T22:16:34.775Z,17.83
2022-10-31T22:19:05.516Z,17.40
2022-10-31T22:21:39.467Z,17.38
2022-10-31T22:24:07.853Z,18.23
2022-10-31T22:26:35.931Z,18.05
2022-10-31T22:29:06.996Z,15.98
2022-10-31T22:31:38.619Z,16.35
2022-10-31T22:34:05.828Z,15.73
2022-10-31T22:36:32.788Z,17.08
2022-10-31T22:39:00.007Z,16.33
2022-10-31T22:41:31.480Z,16.10
2022-10-31T22:43:59.763Z,16.20
2022-10-31T22:46:30.963Z,16.52
2022-10-31T22:49:02.045Z,14.57
2022-10-31T22:51:37.848Z,20.25
2022-10-31T22:54:07.685Z,18.50
2022-10-31T22:56:35.233Z,16.95
2022-10-31T22:59:02.923Z,15.15
2022-10-31T23:01:33.200Z,13.88
2022-10-31T23:04:01.542Z,16.23
2022-10-31T23:06:31.394Z,16.98
2022-10-31T23:09:01.821Z,15.70
2022-10-31T23:11:33.733Z,16.20
2022-10-31T23:14:08.961Z,17.25
2022-10-31T23:16:42.603Z,17.40
2022-10-31T23:19:32.656Z,16.70
2022-10-31T23:22:03.957Z,18.83
2022-10-31T23:24:45.961Z,18.95
2022-10-31T23:27:15.822Z,18.60
2022-10-31T23:29:47.920Z,19.77
2022-10-31T23:32:21.974Z,20.27
2022-10-31T23:34:55.213Z,20.15
2022-10-31T23:37:25.415Z,22.63
2022-10-31T23:39:53.538Z,19.65
2022-10-31T23:42:20.541Z,21.67
2022-10-31T23:44:47.859Z,20.58
2022-10-31T23:47:16.103Z,21.92
2022-10-31T23:49:43.354Z,22.35
2022-10-31T23:52:11.140Z,22.73
2022-10-31T23:54:38.650Z,20.35
2022-10-31T23:57:06.111Z,20.60
2022-10-31T23:59:33.281Z,23.02
